createdAt,value
2019-04-07T00:00:39.390Z,11.40
2019-04-07T00:03:08.245Z,11.50
2019-04-07T00:05:36.979Z,11.40
2019-04-07T00:08:06.706Z,11.30
2019-04-07T00:10:35.576Z,11.30
2019-04-07T00:13:05.210Z,11.30
2019-04-07T00:15:37.713Z,11.30
2019-04-07T00:18:06.652Z,11.30
2019-04-07T00:20:35.345Z,11.20
2019-04-07T00:23:04.094Z,11.20
2019-04-07T00:25:32.923Z,11.10
2019-04-07T00:28:01.941Z,11.10
2019-04-07T00:30:31.629Z,11.20
2019-04-07T00:33:00.824Z,11.10
2019-04-07T00:35:32.625Z,11.00
2019-04-07T00:38:00.457Z,10.90
2019-04-07T00:40:29.506Z,10.80
2019-04-07T00:42:58.315Z,10.90
2019-04-07T00:45:27.229Z,10.90
2019-04-07T00:47:55.952Z,10.90
2019-04-07T00:50:24.647Z,10.90
2019-04-07T00:52:53.663Z,10.80
2019-04-07T00:55:22.347Z,10.80
2019-04-07T00:57:51.014Z,10.80
2019-04-07T01:00:21.963Z,10.80
2019-04-07T01:02:50.697Z,10.70
2019-04-07T01:05:19.281Z,10.60
2019-04-07T01:07:47.978Z,10.70
2019-04-07T01:10:17.437Z,10.70
2019-04-07T01:12:46.289Z,10.70
2019-04-07T01:15:15.727Z,10.70
2019-04-07T01:17:44.589Z,10.70
2019-04-07T01:20:14.269Z,10.70
2019-04-07T01:22:42.946Z,10.60
2019-04-07T01:25:12.113Z,10.60
2019-04-07T01:27:42.410Z,10.60
2019-04-07T01:30:12.260Z,10.50
2019-04-07T01:32:41.104Z,10.50
2019-04-07T01:35:10.125Z,10.50
2019-04-07T01:37:39.573Z,10.40
2019-04-07T01:40:10.252Z,10.40
2019-04-07T01:42:41.022Z,10.40
2019-04-07T01:45:11.921Z,10.50
2019-04-07T01:47:50.872Z,10.50
2019-04-07T01:50:23.916Z,10.50
2019-04-07T01:52:54.574Z,10.40
2019-04-07T01:55:36.955Z,10.40
2019-04-07T01:58:16.370Z,10.30
2019-04-07T02:01:03.016Z,10.20
2019-04-07T02:03:38.983Z,10.20
2019-04-07T02:06:12.300Z,10.10
2019-04-07T02:09:00.924Z,10.00
2019-04-07T02:11:47.890Z,10.10
2019-04-07T02:14:19.094Z,10.10
2019-04-07T02:16:51.978Z,10.10
2019-04-07T02:19:25.157Z,10.10
2019-04-07T02:22:11.072Z,10.10
2019-04-07T02:24:54.313Z,10.10
2019-04-07T02:27:30.680Z,10.00
2019-04-07T02:30:04.054Z,10.00
2019-04-07T02:32:37.950Z,9.90
2019-04-07T02:35:30.529Z,10.00
2019-04-07T02:38:00.734Z,10.00
2019-04-07T02:40:43.088Z,10.00
2019-04-07T02:43:13.433Z,9.90
2019-04-07T02:45:50.599Z,9.90
2019-04-07T02:48:26.921Z,10.00
2019-04-07T02:51:09.672Z,9.90
2019-04-07T02:53:57.001Z,9.90
2019-04-07T02:56:42.412Z,9.90
2019-04-07T02:59:19.842Z,9.80
2019-04-07T03:01:59.340Z,9.80
2019-04-07T03:04:29.770Z,9.70
2019-04-07T03:07:12.053Z,9.60
2019-04-07T03:09:45.048Z,9.60
2019-04-07T03:12:25.075Z,9.60
2019-04-07T03:14:58.530Z,9.50
2019-04-07T03:17:32.126Z,9.50
2019-04-07T03:20:02.908Z,9.50
2019-04-07T03:22:33.602Z,9.60
2019-04-07T03:25:22.071Z,9.60
2019-04-07T03:27:52.785Z,9.60
2019-04-07T03:30:28.358Z,9.60
2019-04-07T03:33:14.178Z,9.60
2019-04-07T03:35:53.112Z,9.50
2019-04-07T03:38:39.197Z,9.40
2019-04-07T03:41:16.171Z,9.50
2019-04-07T03:44:03.371Z,9.50
2019-04-07T03:46:34.651Z,9.50
2019-04-07T03:49:05.938Z,9.40
2019-04-07T03:51:42.561Z,9.30
2019-04-07T03:54:24.604Z,9.20
2019-04-07T03:57:03.531Z,9.20
2019-04-07T03:59:36.693Z,9.20
2019-04-07T04:02:12.977Z,9.20
2019-04-07T04:04:43.660Z,9.30
2019-04-07T04:07:22.381Z,9.30
2019-04-07T04:09:48.644Z,9.30
2019-04-07T04:12:27.900Z,9.30
2019-04-07T04:14:59.709Z,9.30
2019-04-07T04:17:28.462Z,9.30
2019-04-07T04:19:57.381Z,9.30
2019-04-07T04:22:26.185Z,9.30
2019-04-07T04:24:55.560Z,9.30
2019-04-07T04:27:24.401Z,9.30
2019-04-07T04:29:53.408Z,9.30
2019-04-07T04:32:23.189Z,9.30
2019-04-07T04:34:51.975Z,9.30
2019-04-07T04:37:34.765Z,9.20
2019-04-07T04:39:51.217Z,9.20
2019-04-07T04:42:20.394Z,9.20
2019-04-07T04:44:49.424Z,9.30
2019-04-07T04:47:19.052Z,9.30
2019-04-07T04:49:48.973Z,9.30
2019-04-07T04:52:18.102Z,9.20
2019-04-07T04:54:47.593Z,9.20
2019-04-07T04:57:16.367Z,9.20
2019-04-07T04:59:44.981Z,9.10
2019-04-07T05:02:13.870Z,9.10
2019-04-07T05:04:42.436Z,9.10
2019-04-07T05:07:11.288Z,9.20
2019-04-07T05:09:46.527Z,9.10
2019-04-07T05:12:10.439Z,9.10
2019-04-07T05:14:39.178Z,9.00
2019-04-07T05:17:07.728Z,9.00
2019-04-07T05:19:37.179Z,9.00
2019-04-07T05:22:06.097Z,9.00
2019-04-07T05:24:35.206Z,8.90
2019-04-07T05:27:03.983Z,8.90
2019-04-07T05:29:32.567Z,9.00
2019-04-07T05:32:01.544Z,8.90
2019-04-07T05:34:31.107Z,8.90
2019-04-07T05:36:59.957Z,8.90
2019-04-07T05:39:28.611Z,8.90
2019-04-07T05:41:58.018Z,8.90
2019-04-07T05:44:26.751Z,9.00
2019-04-07T05:46:55.896Z,8.90
2019-04-07T05:49:44.550Z,8.90
2019-04-07T05:52:37.853Z,9.00
2019-04-07T05:55:03.415Z,9.00
2019-04-07T05:57:34.660Z,9.10
2019-04-07T06:00:02.657Z,9.20
2019-04-07T06:02:33.953Z,9.10
2019-04-07T06:05:01.599Z,9.10
2019-04-07T06:07:31.523Z,9.10
2019-04-07T06:10:01.019Z,9.10
2019-04-07T06:12:29.937Z,9.20
2019-04-07T06:14:58.756Z,9.30
2019-04-07T06:17:28.301Z,9.30
2019-04-07T06:19:57.722Z,9.40
2019-04-07T06:22:26.488Z,9.50
2019-04-07T06:24:55.054Z,9.50
2019-04-07T06:27:24.054Z,9.50
2019-04-07T06:29:59.573Z,9.60
2019-04-07T06:32:26.717Z,9.70
2019-04-07T06:34:55.640Z,9.70
2019-04-07T06:37:28.812Z,9.80
2019-04-07T06:39:54.831Z,9.90
2019-04-07T06:42:24.166Z,10.00
2019-04-07T06:44:52.933Z,10.00
2019-04-07T06:47:32.012Z,10.10
2019-04-07T06:50:19.078Z,10.20
2019-04-07T06:52:49.644Z,10.20
2019-04-07T06:55:20.130Z,10.30
2019-04-07T06:58:08.607Z,10.50
2019-04-07T07:00:39.697Z,10.60
2019-04-07T07:03:10.276Z,10.70
2019-04-07T07:05:41.141Z,10.70
2019-04-07T07:08:12.665Z,10.80
2019-04-07T07:10:46.639Z,11.00
2019-04-07T07:13:28.482Z,11.10
2019-04-07T07:15:55.645Z,11.20
2019-04-07T07:18:42.435Z,11.40
2019-04-07T07:21:15.504Z,11.50
2019-04-07T07:23:48.870Z,11.60
2019-04-07T07:26:16.051Z,11.80
2019-04-07T07:29:06.278Z,11.90
2019-04-07T07:31:34.768Z,12.00
2019-04-07T07:34:03.817Z,12.30
2019-04-07T07:36:32.869Z,12.50
2019-04-07T07:39:22.963Z,12.80
2019-04-07T07:41:52.189Z,13.00
2019-04-07T07:44:22.291Z,13.20
2019-04-07T07:46:51.828Z,13.40
2019-04-07T07:49:20.624Z,13.60
2019-04-07T07:51:55.018Z,13.80
2019-04-07T07:54:27.507Z,14.00
2019-04-07T07:56:54.066Z,14.10
2019-04-07T07:59:23.020Z,14.20
2019-04-07T08:01:52.538Z,14.30
2019-04-07T08:04:24.922Z,14.50
2019-04-07T08:06:52.264Z,14.60
2019-04-07T08:09:40.500Z,14.70
2019-04-07T08:12:09.607Z,14.70
2019-04-07T08:14:38.911Z,14.80
2019-04-07T08:17:08.454Z,14.90
2019-04-07T08:19:40.670Z,15.00
2019-04-07T08:22:08.524Z,15.10
2019-04-07T08:24:37.635Z,15.10
2019-04-07T08:27:07.305Z,15.20
2019-04-07T08:29:37.487Z,15.30
2019-04-07T08:32:06.610Z,15.40
2019-04-07T08:34:36.128Z,15.50
2019-04-07T08:37:05.918Z,15.50
2019-04-07T08:39:36.273Z,15.60
2019-04-07T08:42:09.732Z,15.60
2019-04-07T08:44:35.680Z,15.60
2019-04-07T08:47:04.820Z,15.60
2019-04-07T08:49:34.568Z,15.70
2019-04-07T08:52:08.759Z,15.70
2019-04-07T08:54:34.111Z,15.60
2019-04-07T08:57:03.434Z,15.60
2019-04-07T08:59:32.541Z,15.70
2019-04-07T09:02:01.946Z,15.60
2019-04-07T09:04:30.888Z,15.60
2019-04-07T09:07:02.187Z,15.60
2019-04-07T09:09:34.023Z,15.50
2019-04-07T09:12:19.513Z,15.50
2019-04-07T09:14:49.151Z,15.40
2019-04-07T09:17:30.718Z,15.40
2019-04-07T09:20:12.159Z,15.40
2019-04-07T09:22:43.235Z,15.40
2019-04-07T09:25:31.533Z,15.40
2019-04-07T09:28:07.611Z,15.40
2019-04-07T09:30:41.061Z,15.40
2019-04-07T09:33:18.057Z,15.30
2019-04-07T09:35:56.730Z,15.30
2019-04-07T09:38:29.568Z,15.30
2019-04-07T09:41:03.771Z,15.30
2019-04-07T09:43:34.833Z,15.40
2019-04-07T09:46:20.502Z,15.40
2019-04-07T09:48:53.684Z,15.40
2019-04-07T09:51:41.354Z,15.40
2019-04-07T09:54:28.488Z,15.40
2019-04-07T09:57:14.237Z,15.40
2019-04-07T09:59:54.560Z,15.40
2019-04-07T10:02:35.521Z,15.40
2019-04-07T10:05:24.825Z,15.30
2019-04-07T10:08:07.376Z,15.40
2019-04-07T10:10:38.307Z,15.30
2019-04-07T10:13:14.692Z,15.40
2019-04-07T10:15:51.020Z,15.40
2019-04-07T10:18:21.503Z,15.50
2019-04-07T10:21:07.919Z,15.50
2019-04-07T10:23:38.590Z,15.50
2019-04-07T10:26:09.446Z,15.50
2019-04-07T10:28:41.640Z,15.60
2019-04-07T10:31:24.599Z,15.70
2019-04-07T10:34:13.215Z,15.70
2019-04-07T10:36:45.660Z,15.80
2019-04-07T10:39:16.049Z,15.80
2019-04-07T10:41:48.276Z,15.90
2019-04-07T10:44:21.779Z,15.90
2019-04-07T10:47:08.366Z,15.90
2019-04-07T10:50:01.440Z,16.00
2019-04-07T10:52:44.330Z,16.00
2019-04-07T10:55:17.514Z,16.00
2019-04-07T10:58:04.345Z,16.00
2019-04-07T11:00:49.378Z,16.10
2019-04-07T11:03:19.569Z,16.10
2019-04-07T11:06:05.207Z,16.00
2019-04-07T11:08:52.336Z,16.10
2019-04-07T11:11:23.164Z,16.00
2019-04-07T11:13:54.451Z,16.00
2019-04-07T11:16:31.295Z,16.10
2019-04-07T11:19:20.707Z,16.20
2019-04-07T11:22:06.905Z,16.30
2019-04-07T11:24:38.054Z,16.40
2019-04-07T11:27:25.476Z,16.40
2019-04-07T11:29:55.857Z,16.40
2019-04-07T11:32:29.255Z,16.40
2019-04-07T11:35:14.892Z,16.50
2019-04-07T11:37:45.831Z,16.50
2019-04-07T11:40:43.293Z,16.60
2019-04-07T11:43:25.857Z,16.60
2019-04-07T11:46:02.141Z,16.60
2019-04-07T11:48:29.430Z,16.60
2019-04-07T11:51:03.328Z,16.50
2019-04-07T11:53:36.675Z,16.50
2019-04-07T11:56:31.043Z,16.50
2019-04-07T11:59:08.859Z,16.50
2019-04-07T12:01:39.516Z,16.50
2019-04-07T12:04:19.714Z,16.50
2019-04-07T12:07:06.646Z,16.50
2019-04-07T12:09:43.116Z,16.60
2019-04-07T12:12:15.749Z,16.60
2019-04-07T12:15:02.277Z,16.60
2019-04-07T12:17:49.189Z,16.70
2019-04-07T12:20:35.427Z,16.80
2019-04-07T12:23:09.322Z,16.90
2019-04-07T12:25:55.714Z,16.90
2019-04-07T12:28:28.900Z,16.90
2019-04-07T12:31:02.124Z,16.90
2019-04-07T12:33:38.609Z,17.00
2019-04-07T12:36:43.008Z,17.00
2019-04-07T12:39:25.635Z,17.10
2019-04-07T12:41:59.400Z,17.00
2019-04-07T12:44:55.875Z,17.00
2019-04-07T12:47:26.696Z,17.00
2019-04-07T12:49:58.326Z,17.00
2019-04-07T12:52:32.537Z,17.00
2019-04-07T12:55:05.844Z,17.00
2019-04-07T12:57:42.546Z,17.10
2019-04-07T13:00:14.487Z,17.10
2019-04-07T13:02:57.132Z,17.10
2019-04-07T13:05:27.485Z,17.10
2019-04-07T13:08:07.050Z,17.00
2019-04-07T13:10:49.816Z,17.00
2019-04-07T13:13:20.072Z,17.00
2019-04-07T13:15:57.041Z,17.10
2019-04-07T13:18:31.525Z,17.10
2019-04-07T13:21:05.443Z,17.00
2019-04-07T13:23:50.408Z,17.00
2019-04-07T13:26:26.959Z,17.00
2019-04-07T13:28:54.523Z,17.00
2019-04-07T13:31:35.066Z,17.00
2019-04-07T13:34:21.353Z,17.00
2019-04-07T13:37:07.016Z,17.00
2019-04-07T13:39:40.753Z,16.90
2019-04-07T13:42:18.280Z,16.90
2019-04-07T13:44:51.642Z,16.90
2019-04-07T13:47:25.540Z,16.90
2019-04-07T13:49:58.968Z,16.90
2019-04-07T13:52:31.222Z,16.90
2019-04-07T13:55:04.565Z,16.90
2019-04-07T13:57:42.851Z,17.00
2019-04-07T14:00:32.779Z,16.90
2019-04-07T14:03:05.867Z,16.90
2019-04-07T14:05:49.068Z,16.90
2019-04-07T14:08:19.919Z,16.90
2019-04-07T14:10:52.854Z,16.90
2019-04-07T14:13:42.432Z,16.80
2019-04-07T14:16:21.245Z,16.80
2019-04-07T14:19:03.992Z,16.70
2019-04-07T14:21:44.010Z,16.70
2019-04-07T14:24:17.267Z,16.70
2019-04-07T14:26:56.697Z,16.70
2019-04-07T14:29:28.306Z,16.70
2019-04-07T14:32:15.340Z,16.60
2019-04-07T14:35:02.295Z,16.70
2019-04-07T14:37:44.638Z,16.60
2019-04-07T14:40:30.524Z,16.60
2019-04-07T14:43:01.157Z,16.60
2019-04-07T14:45:32.062Z,16.60
2019-04-07T14:48:08.500Z,16.60
2019-04-07T14:50:44.862Z,16.60
2019-04-07T14:53:21.074Z,16.70
2019-04-07T14:56:12.971Z,16.80
2019-04-07T14:58:51.094Z,16.80
2019-04-07T15:01:19.184Z,16.90
2019-04-07T15:03:48.070Z,16.90
2019-04-07T15:06:17.121Z,16.80
2019-04-07T15:08:50.853Z,16.90
2019-04-07T15:11:29.778Z,16.90
2019-04-07T15:14:04.187Z,16.90
2019-04-07T15:16:33.995Z,16.90
2019-04-07T15:19:05.517Z,17.00
2019-04-07T15:21:34.489Z,17.00
2019-04-07T15:24:07.224Z,17.00
2019-04-07T15:26:34.800Z,16.90
2019-04-07T15:29:07.155Z,17.00
2019-04-07T15:31:35.291Z,17.00
2019-04-07T15:34:06.355Z,17.00
2019-04-07T15:36:34.310Z,17.00
2019-04-07T15:39:06.401Z,16.90
2019-04-07T15:41:35.959Z,16.90
2019-04-07T15:44:06.924Z,16.90
2019-04-07T15:46:35.466Z,16.90
2019-04-07T15:49:06.481Z,16.80
2019-04-07T15:51:35.403Z,16.90
2019-04-07T15:54:06.186Z,16.90
2019-04-07T15:56:35.704Z,16.90
2019-04-07T15:59:04.720Z,16.90
2019-04-07T16:01:36.074Z,16.90
2019-04-07T16:04:06.718Z,16.80
2019-04-07T16:06:36.997Z,16.80
2019-04-07T16:09:36.001Z,16.80
2019-04-07T16:11:58.284Z,16.90
2019-04-07T16:14:26.367Z,16.90
2019-04-07T16:16:55.140Z,16.90
2019-04-07T16:19:35.069Z,16.90
2019-04-07T16:21:54.839Z,16.90
2019-04-07T16:24:24.457Z,16.90
2019-04-07T16:27:15.074Z,16.90
2019-04-07T16:29:46.086Z,16.90
2019-04-07T16:32:14.668Z,16.90
2019-04-07T16:34:45.235Z,16.90
2019-04-07T16:37:13.899Z,16.80
2019-04-07T16:39:42.651Z,16.80
2019-04-07T16:42:14.101Z,16.80
2019-04-07T16:44:44.149Z,16.80
2019-04-07T16:47:21.857Z,16.80
2019-04-07T16:49:46.631Z,16.70
2019-04-07T16:52:13.547Z,16.70
2019-04-07T16:54:43.737Z,16.70
2019-04-07T16:57:12.961Z,16.70
2019-04-07T16:59:43.496Z,16.70
2019-04-07T17:02:14.409Z,16.70
2019-04-07T17:04:43.098Z,16.70
2019-04-07T17:07:15.310Z,16.60
2019-04-07T17:09:42.609Z,16.60
2019-04-07T17:12:12.690Z,16.60
2019-04-07T17:14:42.081Z,16.60
2019-04-07T17:17:11.159Z,16.60
2019-04-07T17:19:40.458Z,16.60
2019-04-07T17:22:11.868Z,16.70
2019-04-07T17:24:39.947Z,16.70
2019-04-07T17:27:11.401Z,16.70
2019-04-07T17:29:39.610Z,16.70
2019-04-07T17:32:10.728Z,16.70
2019-04-07T17:34:59.552Z,16.70
2019-04-07T17:37:28.617Z,16.60
2019-04-07T17:40:03.378Z,16.60
2019-04-07T17:42:32.357Z,16.60
2019-04-07T17:45:09.697Z,16.60
2019-04-07T17:47:43.123Z,16.50
2019-04-07T17:50:14.724Z,16.50
2019-04-07T17:52:59.777Z,16.50
2019-04-07T17:55:30.063Z,16.50
2019-04-07T17:58:03.178Z,16.40
2019-04-07T18:00:41.075Z,16.40
2019-04-07T18:03:23.670Z,16.40
2019-04-07T18:05:57.802Z,16.40
2019-04-07T18:08:45.297Z,16.40
2019-04-07T18:11:23.378Z,16.40
2019-04-07T18:14:30.115Z,16.40
2019-04-07T18:17:13.098Z,16.30
2019-04-07T18:20:04.130Z,16.20
2019-04-07T18:22:51.713Z,16.20
2019-04-07T18:25:23.970Z,16.20
2019-04-07T18:28:03.226Z,16.20
2019-04-07T18:30:39.681Z,16.20
2019-04-07T18:33:15.605Z,16.20
2019-04-07T18:35:45.215Z,16.20
2019-04-07T18:38:31.865Z,16.20
2019-04-07T18:41:17.399Z,16.20
2019-04-07T18:44:07.683Z,16.20
2019-04-07T18:46:52.753Z,16.10
2019-04-07T18:49:23.849Z,16.00
2019-04-07T18:52:13.319Z,15.80
2019-04-07T18:54:47.603Z,15.80
2019-04-07T18:57:27.008Z,15.70
2019-04-07T19:00:06.166Z,15.70
2019-04-07T19:02:37.860Z,15.70
2019-04-07T19:05:43.674Z,15.70
2019-04-07T19:08:23.262Z,15.70
2019-04-07T19:11:14.846Z,15.60
2019-04-07T19:14:21.014Z,15.60
2019-04-07T19:16:49.971Z,15.50
2019-04-07T19:19:34.208Z,15.40
2019-04-07T19:22:21.307Z,15.50
2019-04-07T19:24:51.804Z,15.40
2019-04-07T19:27:31.469Z,15.40
2019-04-07T19:30:19.304Z,15.40
2019-04-07T19:32:56.804Z,15.30
2019-04-07T19:35:40.808Z,15.30
2019-04-07T19:38:25.264Z,15.30
2019-04-07T19:41:00.223Z,15.40
2019-04-07T19:43:44.456Z,15.30
2019-04-07T19:46:14.649Z,15.40
2019-04-07T19:48:50.887Z,15.30
2019-04-07T19:51:22.479Z,15.30
2019-04-07T19:54:05.207Z,15.30
2019-04-07T19:56:38.217Z,15.20
2019-04-07T19:59:10.024Z,15.20
2019-04-07T20:01:43.163Z,15.10
2019-04-07T20:04:25.239Z,15.10
2019-04-07T20:06:59.571Z,15.10
2019-04-07T20:09:32.639Z,15.10
2019-04-07T20:12:18.451Z,15.00
2019-04-07T20:15:01.460Z,15.10
2019-04-07T20:17:31.087Z,15.10
2019-04-07T20:20:17.505Z,15.10
2019-04-07T20:22:47.784Z,15.10
2019-04-07T20:25:33.408Z,15.10
2019-04-07T20:28:09.668Z,13.70
2019-04-07T20:30:58.174Z,15.00
2019-04-07T20:33:31.429Z,15.00
2019-04-07T20:36:01.136Z,14.90
2019-04-07T20:38:40.393Z,15.00
2019-04-07T20:41:14.239Z,15.10
2019-04-07T20:44:01.185Z,15.00
2019-04-07T20:46:31.746Z,15.10
2019-04-07T20:49:17.942Z,15.00
2019-04-07T20:52:05.885Z,15.00
2019-04-07T20:54:46.554Z,15.00
2019-04-07T20:57:30.847Z,15.00
2019-04-07T21:00:03.585Z,15.00
2019-04-07T21:02:34.907Z,14.90
2019-04-07T21:05:10.149Z,15.00
2019-04-07T21:07:40.921Z,15.00
2019-04-07T21:10:17.855Z,15.00
2019-04-07T21:12:57.124Z,15.00
2019-04-07T21:15:33.703Z,15.00
2019-04-07T21:18:21.462Z,14.90
2019-04-07T21:20:54.826Z,14.90
2019-04-07T21:23:27.843Z,14.80
2019-04-07T21:26:03.825Z,14.80
2019-04-07T21:28:36.835Z,14.90
2019-04-07T21:31:06.404Z,14.90
2019-04-07T21:33:59.186Z,14.80
2019-04-07T21:36:32.446Z,14.80
2019-04-07T21:39:21.673Z,14.90
2019-04-07T21:42:05.995Z,14.90
2019-04-07T21:44:51.137Z,14.90
2019-04-07T21:47:31.004Z,14.90
2019-04-07T21:50:09.706Z,14.90
2019-04-07T21:52:39.498Z,14.80
2019-04-07T21:55:15.796Z,14.90
2019-04-07T21:57:48.885Z,14.90
2019-04-07T22:00:21.656Z,15.00
2019-04-07T22:02:52.028Z,14.90
2019-04-07T22:05:28.662Z,15.00
2019-04-07T22:08:03.745Z,15.00
2019-04-07T22:10:30.696Z,15.00
2019-04-07T22:13:06.757Z,14.90
2019-04-07T22:15:45.816Z,14.90
2019-04-07T22:18:09.933Z,14.90
2019-04-07T22:20:39.080Z,14.90
2019-04-07T22:23:11.023Z,14.90
2019-04-07T22:25:54.052Z,15.00
2019-04-07T22:28:30.318Z,14.90
2019-04-07T22:31:01.545Z,14.90
2019-04-07T22:33:32.862Z,14.80
2019-04-07T22:36:02.731Z,14.90
2019-04-07T22:38:31.599Z,14.80
2019-04-07T22:41:20.042Z,14.80
2019-04-07T22:43:50.833Z,14.90
2019-04-07T22:46:25.677Z,14.80
2019-04-07T22:48:55.163Z,14.80
2019-04-07T22:51:21.407Z,14.80
2019-04-07T22:53:57.735Z,14.80
2019-04-07T22:56:27.665Z,14.80
2019-04-07T22:58:57.476Z,14.80
2019-04-07T23:01:27.164Z,14.70
2019-04-07T23:03:56.370Z,14.70
2019-04-07T23:06:25.043Z,14.70
2019-04-07T23:08:56.194Z,14.70
2019-04-07T23:11:25.769Z,14.70
2019-04-07T23:13:55.482Z,14.70
2019-04-07T23:16:24.394Z,14.60
2019-04-07T23:19:02.657Z,14.70
2019-04-07T23:21:31.985Z,14.70
2019-04-07T23:24:01.274Z,14.60
2019-04-07T23:26:30.042Z,14.60
2019-04-07T23:29:03.714Z,14.60
2019-04-07T23:31:34.469Z,14.50
2019-04-07T23:34:03.239Z,14.50
2019-04-07T23:36:31.803Z,14.50
2019-04-07T23:39:01.510Z,14.50
2019-04-07T23:41:30.550Z,14.50
2019-04-07T23:43:59.162Z,14.50
2019-04-07T23:46:28.498Z,14.50
2019-04-07T23:48:58.117Z,14.40
2019-04-07T23:51:27.315Z,14.40
2019-04-07T23:54:12.647Z,14.40
2019-04-07T23:56:42.177Z,14.40
2019-04-07T23:59:11.399Z,14.40
